KAOH/AOH METAR and TAF weather

Enter ICAO airport designator
Station Type Date Time Source
KAOH METAR 2019/04/18 19:53 UTC NOAA

KAOH 181953Z AUTO 21015G27KT 10SM BKN050 OVC065 23/13 A2962 RMK AO2 PK WND 22036/1911 SLP023 T02280128


Station Type Date Time Source
KAOH Decoded METAR 2019/04/18 19:53 UTC NOAA

LIMA ALLEN COUNTY AIRPORT, OH, United States (KAOH) 40-42N 84-01W 296M
Apr 18, 2019 - 03:53 PM EDT / 2019.04.18 1953 UTC
Wind: from the SSW (210 degrees) at 17 MPH (15 KT) gusting to 31 MPH (27 KT):0
Visibility: 10 mile(s):0
Sky conditions: overcast
Temperature: 73.0 F (22.8 C)
Dew Point: 55.0 F (12.8 C)
Relative Humidity: 53%
Pressure (altimeter): 29.62 in. Hg (1003 hPa)
ob: KAOH 181953Z AUTO 21015G27KT 10SM BKN050 OVC065 23/13 A2962 RMK AO2 PK WND 22036/1911 SLP023 T02280128
cycle: 20

Station Type Date Time Source
KAOH TAF UTC NOAA

Error!

Example: see airport list